sensor_id;sensor_type;location;lat;lon;timestamp;pressure;altitude;pressure_sealevel;temperature;humidity
73624;BME280;61921;53.226;-1.296;2022-07-22T00:00:34;101252.44;;;18.48;62.27
73624;BME280;61921;53.226;-1.296;2022-07-22T00:02:59;101253.34;;;18.45;62.28
73624;BME280;61921;53.226;-1.296;2022-07-22T00:05:25;101253.06;;;18.26;62.99
73624;BME280;61921;53.226;-1.296;2022-07-22T00:07:50;101253.16;;;18.30;62.82
73624;BME280;61921;53.226;-1.296;2022-07-22T00:10:15;101248.32;;;18.43;62.54
73624;BME280;61921;53.226;-1.296;2022-07-22T00:12:41;101244.67;;;18.50;62.29
73624;BME280;61921;53.226;-1.296;2022-07-22T00:15:08;101244.73;;;18.52;62.38
73624;BME280;61921;53.226;-1.296;2022-07-22T00:17:31;101243.97;;;18.55;62.13
73624;BME280;61921;53.226;-1.296;2022-07-22T00:19:56;101244.63;;;18.60;62.14
73624;BME280;61921;53.226;-1.296;2022-07-22T00:22:21;101244.90;;;18.47;62.60
73624;BME280;61921;53.226;-1.296;2022-07-22T00:24:47;101242.13;;;18.22;63.53
73624;BME280;61921;53.226;-1.296;2022-07-22T00:27:12;101238.04;;;18.23;63.54
73624;BME280;61921;53.226;-1.296;2022-07-22T00:29:37;101236.12;;;18.18;63.62
73624;BME280;61921;53.226;-1.296;2022-07-22T00:32:02;101236.05;;;18.28;63.40
73624;BME280;61921;53.226;-1.296;2022-07-22T00:34:28;101239.56;;;18.16;63.56
73624;BME280;61921;53.226;-1.296;2022-07-22T00:36:53;101238.86;;;18.08;63.92
73624;BME280;61921;53.226;-1.296;2022-07-22T00:39:18;101235.81;;;18.06;64.06
73624;BME280;61921;53.226;-1.296;2022-07-22T00:41:43;101233.95;;;17.85;64.65
73624;BME280;61921;53.226;-1.296;2022-07-22T00:44:09;101233.64;;;17.82;65.04
73624;BME280;61921;53.226;-1.296;2022-07-22T00:46:36;101234.94;;;17.73;65.10
73624;BME280;61921;53.226;-1.296;2022-07-22T00:48:59;101235.16;;;17.89;64.62
73624;BME280;61921;53.226;-1.296;2022-07-22T00:51:26;101236.60;;;17.54;65.78
73624;BME280;61921;53.226;-1.296;2022-07-22T00:53:50;101235.89;;;17.54;65.82
73624;BME280;61921;53.226;-1.296;2022-07-22T00:56:16;101230.26;;;17.44;66.21
73624;BME280;61921;53.226;-1.296;2022-07-22T00:58:40;101226.25;;;17.40;66.61
73624;BME280;61921;53.226;-1.296;2022-07-22T01:01:06;101222.86;;;17.44;66.38
73624;BME280;61921;53.226;-1.296;2022-07-22T01:03:31;101221.98;;;17.36;66.83
73624;BME280;61921;53.226;-1.296;2022-07-22T01:05:56;101220.65;;;17.23;67.24
73624;BME280;61921;53.226;-1.296;2022-07-22T01:08:21;101223.18;;;17.43;66.69
73624;BME280;61921;53.226;-1.296;2022-07-22T01:10:46;101223.38;;;17.57;66.28
73624;BME280;61921;53.226;-1.296;2022-07-22T01:13:12;101222.18;;;17.53;66.42
73624;BME280;61921;53.226;-1.296;2022-07-22T01:15:37;101222.03;;;17.55;66.40
73624;BME280;61921;53.226;-1.296;2022-07-22T01:18:03;101221.66;;;17.32;67.24
73624;BME280;61921;53.226;-1.296;2022-07-22T01:20:28;101218.27;;;17.33;67.28
73624;BME280;61921;53.226;-1.296;2022-07-22T01:22:53;101217.82;;;17.30;67.42
73624;BME280;61921;53.226;-1.296;2022-07-22T01:25:18;101213.32;;;17.29;67.53
73624;BME280;61921;53.226;-1.296;2022-07-22T01:27:44;101208.56;;;17.31;67.41
73624;BME280;61921;53.226;-1.296;2022-07-22T01:30:10;101208.73;;;17.26;67.77
73624;BME280;61921;53.226;-1.296;2022-07-22T01:32:35;101210.12;;;17.34;67.41
73624;BME280;61921;53.226;-1.296;2022-07-22T01:35:00;101210.45;;;17.41;67.40
73624;BME280;61921;53.226;-1.296;2022-07-22T01:37:25;101211.81;;;17.46;67.07
73624;BME280;61921;53.226;-1.296;2022-07-22T01:39:50;101211.27;;;17.55;66.81
73624;BME280;61921;53.226;-1.296;2022-07-22T01:42:16;101210.58;;;17.62;66.65
73624;BME280;61921;53.226;-1.296;2022-07-22T01:44:41;101207.78;;;17.49;66.98
73624;BME280;61921;53.226;-1.296;2022-07-22T01:47:06;101208.58;;;17.57;66.85
73624;BME280;61921;53.226;-1.296;2022-07-22T01:49:31;101209.00;;;17.58;66.80
73624;BME280;61921;53.226;-1.296;2022-07-22T01:51:57;101203.80;;;17.40;67.48
73624;BME280;61921;53.226;-1.296;2022-07-22T01:54:22;101200.47;;;17.49;67.18
73624;BME280;61921;53.226;-1.296;2022-07-22T01:56:47;101195.44;;;17.32;67.79
73624;BME280;61921;53.226;-1.296;2022-07-22T01:59:12;101194.92;;;17.26;68.04
73624;BME280;61921;53.226;-1.296;2022-07-22T02:01:37;101195.89;;;17.25;68.06
73624;BME280;61921;53.226;-1.296;2022-07-22T02:04:03;101194.31;;;17.24;68.03
73624;BME280;61921;53.226;-1.296;2022-07-22T02:06:29;101193.32;;;17.33;67.78
73624;BME280;61921;53.226;-1.296;2022-07-22T02:08:53;101193.45;;;17.31;67.74
73624;BME280;61921;53.226;-1.296;2022-07-22T02:11:19;101195.04;;;17.39;67.61
73624;BME280;61921;53.226;-1.296;2022-07-22T02:13:44;101193.60;;;17.15;68.52
73624;BME280;61921;53.226;-1.296;2022-07-22T02:16:09;101196.44;;;17.30;68.03
73624;BME280;61921;53.226;-1.296;2022-07-22T02:18:34;101194.72;;;17.38;67.72
73624;BME280;61921;53.226;-1.296;2022-07-22T02:21:00;101190.37;;;17.43;67.48
73624;BME280;61921;53.226;-1.296;2022-07-22T02:23:25;101194.94;;;17.35;68.02
73624;BME280;61921;53.226;-1.296;2022-07-22T02:25:50;101194.91;;;17.46;67.51
73624;BME280;61921;53.226;-1.296;2022-07-22T02:28:15;101193.25;;;17.61;67.22
73624;BME280;61921;53.226;-1.296;2022-07-22T02:30:41;101189.86;;;17.74;66.37
73624;BME280;61921;53.226;-1.296;2022-07-22T02:33:06;101188.74;;;17.85;66.06
73624;BME280;61921;53.226;-1.296;2022-07-22T02:35:31;101184.99;;;17.95;65.85
73624;BME280;61921;53.226;-1.296;2022-07-22T02:37:57;101185.45;;;17.83;66.07
73624;BME280;61921;53.226;-1.296;2022-07-22T02:40:22;101184.04;;;17.67;66.56
73624;BME280;61921;53.226;-1.296;2022-07-22T02:42:47;101184.11;;;17.75;66.49
73624;BME280;61921;53.226;-1.296;2022-07-22T02:45:13;101177.44;;;17.96;65.68
73624;BME280;61921;53.226;-1.296;2022-07-22T02:47:45;101185.02;;;17.71;66.58
73624;BME280;61921;53.226;-1.296;2022-07-22T02:50:04;101180.44;;;17.90;66.10
73624;BME280;61921;53.226;-1.296;2022-07-22T02:52:29;101180.00;;;18.01;65.41
73624;BME280;61921;53.226;-1.296;2022-07-22T02:54:54;101178.06;;;17.59;66.94
73624;BME280;61921;53.226;-1.296;2022-07-22T02:57:19;101178.29;;;17.38;67.53
73624;BME280;61921;53.226;-1.296;2022-07-22T02:59:44;101176.41;;;17.67;66.87
73624;BME280;61921;53.226;-1.296;2022-07-22T03:02:10;101170.95;;;17.37;67.79
73624;BME280;61921;53.226;-1.296;2022-07-22T03:04:35;101171.39;;;17.70;66.78
73624;BME280;61921;53.226;-1.296;2022-07-22T03:07:00;101165.75;;;17.31;68.01
73624;BME280;61921;53.226;-1.296;2022-07-22T03:09:25;101167.36;;;17.35;67.82
73624;BME280;61921;53.226;-1.296;2022-07-22T03:11:51;101171.38;;;17.32;67.81
73624;BME280;61921;53.226;-1.296;2022-07-22T03:14:16;101173.33;;;17.35;67.83
73624;BME280;61921;53.226;-1.296;2022-07-22T03:16:41;101172.99;;;17.14;68.54
73624;BME280;61921;53.226;-1.296;2022-07-22T03:19:06;101167.23;;;17.13;68.48
73624;BME280;61921;53.226;-1.296;2022-07-22T03:21:32;101169.93;;;17.23;68.35
73624;BME280;61921;53.226;-1.296;2022-07-22T03:23:57;101172.17;;;17.26;68.20
73624;BME280;61921;53.226;-1.296;2022-07-22T03:26:22;101172.94;;;17.35;67.91
73624;BME280;61921;53.226;-1.296;2022-07-22T03:28:47;101172.89;;;17.48;67.40
73624;BME280;61921;53.226;-1.296;2022-07-22T03:31:12;101170.82;;;17.51;67.34
73624;BME280;61921;53.226;-1.296;2022-07-22T03:33:38;101166.26;;;17.63;66.74
73624;BME280;61921;53.226;-1.296;2022-07-22T03:36:04;101162.37;;;17.42;67.47
73624;BME280;61921;53.226;-1.296;2022-07-22T03:38:29;101156.90;;;17.53;67.33
73624;BME280;61921;53.226;-1.296;2022-07-22T03:40:54;101160.12;;;17.28;68.19
73624;BME280;61921;53.226;-1.296;2022-07-22T03:43:19;101158.26;;;16.91;69.52
73624;BME280;61921;53.226;-1.296;2022-07-22T03:45:44;101162.28;;;17.04;69.40
73624;BME280;61921;53.226;-1.296;2022-07-22T03:48:09;101163.28;;;17.19;68.91
73624;BME280;61921;53.226;-1.296;2022-07-22T03:50:35;101160.95;;;17.30;68.44
73624;BME280;61921;53.226;-1.296;2022-07-22T03:53:00;101153.27;;;17.00;69.76
73624;BME280;61921;53.226;-1.296;2022-07-22T03:55:26;101150.14;;;16.98;69.76
73624;BME280;61921;53.226;-1.296;2022-07-22T03:57:50;101146.46;;;16.78;70.60
73624;BME280;61921;53.226;-1.296;2022-07-22T04:00:16;101151.24;;;16.82;70.74
73624;BME280;61921;53.226;-1.296;2022-07-22T04:02:41;101152.20;;;16.91;70.30
73624;BME280;61921;53.226;-1.296;2022-07-22T04:05:07;101153.46;;;17.08;69.74
73624;BME280;61921;53.226;-1.296;2022-07-22T04:07:32;101153.71;;;17.17;69.35
73624;BME280;61921;53.226;-1.296;2022-07-22T04:09:57;101153.56;;;17.22;69.12
73624;BME280;61921;53.226;-1.296;2022-07-22T04:12:22;101152.25;;;17.30;69.03
73624;BME280;61921;53.226;-1.296;2022-07-22T04:14:47;101148.89;;;17.28;69.08
73624;BME280;61921;53.226;-1.296;2022-07-22T04:17:12;101146.43;;;17.41;68.64
73624;BME280;61921;53.226;-1.296;2022-07-22T04:19:38;101146.09;;;17.42;68.69
73624;BME280;61921;53.226;-1.296;2022-07-22T04:22:03;101147.65;;;17.53;68.10
73624;BME280;61921;53.226;-1.296;2022-07-22T04:24:29;101143.45;;;17.56;68.14
73624;BME280;61921;53.226;-1.296;2022-07-22T04:26:53;101145.79;;;17.58;68.18
73624;BME280;61921;53.226;-1.296;2022-07-22T04:29:19;101148.92;;;17.66;67.75
73624;BME280;61921;53.226;-1.296;2022-07-22T04:31:44;101151.47;;;17.53;68.34
73624;BME280;61921;53.226;-1.296;2022-07-22T04:34:09;101155.52;;;17.58;68.14
73624;BME280;61921;53.226;-1.296;2022-07-22T04:36:35;101153.59;;;17.61;68.13
73624;BME280;61921;53.226;-1.296;2022-07-22T04:39:00;101150.44;;;17.56;68.22
73624;BME280;61921;53.226;-1.296;2022-07-22T04:41:25;101150.25;;;17.50;68.18
73624;BME280;61921;53.226;-1.296;2022-07-22T04:43:50;101144.37;;;17.33;68.89
73624;BME280;61921;53.226;-1.296;2022-07-22T04:46:16;101140.42;;;17.12;69.87
73624;BME280;61921;53.226;-1.296;2022-07-22T04:48:41;101136.01;;;17.17;69.83
73624;BME280;61921;53.226;-1.296;2022-07-22T04:51:06;101135.79;;;17.17;69.85
73624;BME280;61921;53.226;-1.296;2022-07-22T04:53:32;101135.47;;;17.16;69.86
73624;BME280;61921;53.226;-1.296;2022-07-22T04:55:57;101139.48;;;17.19;69.90
73624;BME280;61921;53.226;-1.296;2022-07-22T04:58:22;101146.04;;;17.25;69.70
73624;BME280;61921;53.226;-1.296;2022-07-22T05:00:48;101149.33;;;17.29;69.52
73624;BME280;61921;53.226;-1.296;2022-07-22T05:03:13;101152.44;;;17.33;69.38
73624;BME280;61921;53.226;-1.296;2022-07-22T05:05:38;101153.46;;;17.37;69.32
73624;BME280;61921;53.226;-1.296;2022-07-22T05:08:04;101156.04;;;17.18;69.89
73624;BME280;61921;53.226;-1.296;2022-07-22T05:10:29;101156.34;;;17.12;70.29
73624;BME280;61921;53.226;-1.296;2022-07-22T05:12:54;101155.58;;;17.23;69.59
73624;BME280;61921;53.226;-1.296;2022-07-22T05:15:19;101153.78;;;17.31;69.66
73624;BME280;61921;53.226;-1.296;2022-07-22T05:17:45;101153.46;;;17.27;69.94
73624;BME280;61921;53.226;-1.296;2022-07-22T05:20:11;101157.34;;;17.48;69.18
73624;BME280;61921;53.226;-1.296;2022-07-22T05:22:35;101157.49;;;17.59;68.80
73624;BME280;61921;53.226;-1.296;2022-07-22T05:25:01;101156.07;;;17.53;68.68
73624;BME280;61921;53.226;-1.296;2022-07-22T05:27:26;101153.80;;;17.61;68.34
73624;BME280;61921;53.226;-1.296;2022-07-22T05:29:51;101154.49;;;17.69;68.43
73624;BME280;61921;53.226;-1.296;2022-07-22T05:32:16;101154.12;;;17.38;69.28
73624;BME280;61921;53.226;-1.296;2022-07-22T05:34:42;101156.74;;;17.14;70.12
73624;BME280;61921;53.226;-1.296;2022-07-22T05:37:07;101154.80;;;17.36;69.71
73624;BME280;61921;53.226;-1.296;2022-07-22T05:39:32;101157.81;;;17.43;69.60
73624;BME280;61921;53.226;-1.296;2022-07-22T05:41:57;101158.00;;;17.49;69.34
73624;BME280;61921;53.226;-1.296;2022-07-22T05:44:23;101157.24;;;17.36;70.16
73624;BME280;61921;53.226;-1.296;2022-07-22T05:46:48;101156.95;;;17.45;70.03
73624;BME280;61921;53.226;-1.296;2022-07-22T05:49:13;101154.85;;;17.34;70.73
73624;BME280;61921;53.226;-1.296;2022-07-22T05:51:38;101153.54;;;17.34;71.44
73624;BME280;61921;53.226;-1.296;2022-07-22T05:54:04;101150.27;;;17.40;71.50
73624;BME280;61921;53.226;-1.296;2022-07-22T05:56:29;101151.70;;;17.47;71.13
73624;BME280;61921;53.226;-1.296;2022-07-22T05:58:54;101154.03;;;17.41;71.38
73624;BME280;61921;53.226;-1.296;2022-07-22T06:01:20;101157.99;;;17.38;72.52
73624;BME280;61921;53.226;-1.296;2022-07-22T06:03:45;101157.32;;;17.33;72.85
73624;BME280;61921;53.226;-1.296;2022-07-22T06:06:10;101160.82;;;17.20;72.65
73624;BME280;61921;53.226;-1.296;2022-07-22T06:08:36;101165.24;;;17.15;72.94
73624;BME280;61921;53.226;-1.296;2022-07-22T06:11:00;101165.07;;;17.13;73.35
73624;BME280;61921;53.226;-1.296;2022-07-22T06:13:26;101166.59;;;17.15;73.29
73624;BME280;61921;53.226;-1.296;2022-07-22T06:15:51;101164.70;;;17.21;72.84
73624;BME280;61921;53.226;-1.296;2022-07-22T06:18:17;101164.48;;;17.26;72.68
73624;BME280;61921;53.226;-1.296;2022-07-22T06:20:41;101164.82;;;17.26;71.63
73624;BME280;61921;53.226;-1.296;2022-07-22T06:23:07;101165.50;;;17.32;71.93
73624;BME280;61921;53.226;-1.296;2022-07-22T06:25:32;101166.72;;;17.38;71.66
73624;BME280;61921;53.226;-1.296;2022-07-22T06:27:57;101165.30;;;17.38;72.10
73624;BME280;61921;53.226;-1.296;2022-07-22T06:30:23;101164.03;;;17.37;72.61
73624;BME280;61921;53.226;-1.296;2022-07-22T06:32:48;101164.19;;;17.35;72.45
73624;BME280;61921;53.226;-1.296;2022-07-22T06:35:13;101164.22;;;17.38;72.73
73624;BME280;61921;53.226;-1.296;2022-07-22T06:37:38;101167.08;;;17.44;73.09
73624;BME280;61921;53.226;-1.296;2022-07-22T06:40:05;101171.44;;;17.48;72.97
73624;BME280;61921;53.226;-1.296;2022-07-22T06:42:29;101173.36;;;17.47;73.13
73624;BME280;61921;53.226;-1.296;2022-07-22T06:44:54;101175.04;;;17.35;74.85
73624;BME280;61921;53.226;-1.296;2022-07-22T06:47:19;101175.26;;;17.37;74.67
73624;BME280;61921;53.226;-1.296;2022-07-22T06:49:45;101173.34;;;17.45;73.45
73624;BME280;61921;53.226;-1.296;2022-07-22T06:52:10;101175.19;;;17.30;73.85
73624;BME280;61921;53.226;-1.296;2022-07-22T06:54:35;101174.40;;;17.34;74.13
73624;BME280;61921;53.226;-1.296;2022-07-22T06:57:00;101173.25;;;17.16;75.32
73624;BME280;61921;53.226;-1.296;2022-07-22T06:59:26;101174.07;;;17.18;75.08
73624;BME280;61921;53.226;-1.296;2022-07-22T07:01:51;101176.10;;;17.12;75.36
73624;BME280;61921;53.226;-1.296;2022-07-22T07:04:16;101175.40;;;17.08;75.70
73624;BME280;61921;53.226;-1.296;2022-07-22T07:06:42;101174.71;;;17.11;75.91
73624;BME280;61921;53.226;-1.296;2022-07-22T07:09:07;101172.35;;;17.13;75.11
73624;BME280;61921;53.226;-1.296;2022-07-22T07:11:32;101172.31;;;17.03;75.50
73624;BME280;61921;53.226;-1.296;2022-07-22T07:13:58;101170.42;;;17.05;75.12
73624;BME280;61921;53.226;-1.296;2022-07-22T07:16:23;101170.74;;;17.16;75.57
73624;BME280;61921;53.226;-1.296;2022-07-22T07:18:49;101170.20;;;17.18;75.79
73624;BME280;61921;53.226;-1.296;2022-07-22T07:21:14;101169.85;;;17.30;75.52
73624;BME280;61921;53.226;-1.296;2022-07-22T07:23:40;101167.74;;;17.34;74.94
73624;BME280;61921;53.226;-1.296;2022-07-22T07:26:05;101167.52;;;17.37;74.73
73624;BME280;61921;53.226;-1.296;2022-07-22T07:28:30;101167.66;;;17.52;73.76
73624;BME280;61921;53.226;-1.296;2022-07-22T07:30:56;101168.93;;;17.37;73.65
73624;BME280;61921;53.226;-1.296;2022-07-22T07:33:21;101170.99;;;17.41;73.97
73624;BME280;61921;53.226;-1.296;2022-07-22T07:35:47;101169.40;;;17.47;73.18
73624;BME280;61921;53.226;-1.296;2022-07-22T07:38:11;101166.40;;;17.49;73.23
73624;BME280;61921;53.226;-1.296;2022-07-22T07:40:37;101163.99;;;17.55;72.66
73624;BME280;61921;53.226;-1.296;2022-07-22T07:43:03;101164.13;;;17.45;73.37
73624;BME280;61921;53.226;-1.296;2022-07-22T07:45:28;101159.75;;;17.42;72.02
73624;BME280;61921;53.226;-1.296;2022-07-22T07:47:53;101160.10;;;17.37;72.49
73624;BME280;61921;53.226;-1.296;2022-07-22T07:50:18;101162.41;;;17.38;72.82
73624;BME280;61921;53.226;-1.296;2022-07-22T07:52:45;101162.92;;;17.44;73.06
73624;BME280;61921;53.226;-1.296;2022-07-22T07:55:10;101162.31;;;17.61;72.92
73624;BME280;61921;53.226;-1.296;2022-07-22T07:57:35;101166.33;;;17.60;72.78
73624;BME280;61921;53.226;-1.296;2022-07-22T08:00:00;101164.05;;;17.55;72.76
73624;BME280;61921;53.226;-1.296;2022-07-22T08:02:25;101160.36;;;17.60;72.98
73624;BME280;61921;53.226;-1.296;2022-07-22T08:04:51;101158.65;;;17.64;72.77
73624;BME280;61921;53.226;-1.296;2022-07-22T08:07:17;101161.42;;;17.57;73.66
73624;BME280;61921;53.226;-1.296;2022-07-22T08:09:42;101159.31;;;17.54;73.26
73624;BME280;61921;53.226;-1.296;2022-07-22T08:12:08;101159.77;;;17.47;73.50
73624;BME280;61921;53.226;-1.296;2022-07-22T08:14:33;101159.80;;;17.44;73.14
73624;BME280;61921;53.226;-1.296;2022-07-22T08:16:59;101156.64;;;17.47;73.35
73624;BME280;61921;53.226;-1.296;2022-07-22T08:19:24;101153.89;;;17.56;72.52
73624;BME280;61921;53.226;-1.296;2022-07-22T08:21:49;101152.09;;;17.61;72.63
73624;BME280;61921;53.226;-1.296;2022-07-22T08:24:14;101154.05;;;17.61;72.73
73624;BME280;61921;53.226;-1.296;2022-07-22T08:26:39;101152.22;;;17.56;73.57
73624;BME280;61921;53.226;-1.296;2022-07-22T08:29:05;101151.72;;;17.66;74.03
73624;BME280;61921;53.226;-1.296;2022-07-22T08:31:30;101145.21;;;17.61;73.15
73624;BME280;61921;53.226;-1.296;2022-07-22T08:33:55;101143.33;;;17.59;74.05
73624;BME280;61921;53.226;-1.296;2022-07-22T08:36:21;101138.99;;;17.70;73.10
73624;BME280;61921;53.226;-1.296;2022-07-22T08:38:46;101139.66;;;17.62;73.78
73624;BME280;61921;53.226;-1.296;2022-07-22T08:41:13;101141.27;;;17.41;74.77
73624;BME280;61921;53.226;-1.296;2022-07-22T08:43:38;101141.02;;;17.18;72.85
73624;BME280;61921;53.226;-1.296;2022-07-22T08:46:02;101140.28;;;17.20;74.48
73624;BME280;61921;53.226;-1.296;2022-07-22T08:48:28;101140.81;;;17.07;76.29
73624;BME280;61921;53.226;-1.296;2022-07-22T08:50:53;101142.06;;;17.34;74.80
73624;BME280;61921;53.226;-1.296;2022-07-22T08:53:18;101140.30;;;17.27;74.54
73624;BME280;61921;53.226;-1.296;2022-07-22T08:55:44;101141.36;;;17.36;75.64
73624;BME280;61921;53.226;-1.296;2022-07-22T08:58:09;101142.22;;;17.11;74.43
73624;BME280;61921;53.226;-1.296;2022-07-22T09:00:34;101143.92;;;17.08;76.10
73624;BME280;61921;53.226;-1.296;2022-07-22T09:03:00;101144.69;;;16.73;76.18
73624;BME280;61921;53.226;-1.296;2022-07-22T09:05:32;101140.81;;;16.55;76.43
73624;BME280;61921;53.226;-1.296;2022-07-22T09:07:50;101137.84;;;16.91;77.67
73624;BME280;61921;53.226;-1.296;2022-07-22T09:10:17;101135.32;;;16.87;75.19
73624;BME280;61921;53.226;-1.296;2022-07-22T09:12:51;101133.91;;;16.91;76.41
73624;BME280;61921;53.226;-1.296;2022-07-22T09:15:07;101131.80;;;17.00;75.64
73624;BME280;61921;53.226;-1.296;2022-07-22T09:17:32;101132.28;;;16.93;75.73
73624;BME280;61921;53.226;-1.296;2022-07-22T09:19:59;101132.93;;;17.26;73.21
73624;BME280;61921;53.226;-1.296;2022-07-22T09:22:33;101136.24;;;17.05;75.04
73624;BME280;61921;53.226;-1.296;2022-07-22T09:24:47;101130.29;;;17.38;75.11
73624;BME280;61921;53.226;-1.296;2022-07-22T09:27:22;101131.32;;;17.42;74.84
73624;BME280;61921;53.226;-1.296;2022-07-22T09:29:38;101130.36;;;17.39;75.37
73624;BME280;61921;53.226;-1.296;2022-07-22T09:32:03;101128.69;;;17.29;76.02
73624;BME280;61921;53.226;-1.296;2022-07-22T09:34:31;101128.08;;;17.17;76.59
73624;BME280;61921;53.226;-1.296;2022-07-22T09:36:55;101129.45;;;17.22;76.90
73624;BME280;61921;53.226;-1.296;2022-07-22T09:39:25;101128.92;;;17.30;75.47
73624;BME280;61921;53.226;-1.296;2022-07-22T09:44:20;101130.82;;;17.26;74.87
73624;BME280;61921;53.226;-1.296;2022-07-22T09:46:36;101130.71;;;16.86;75.75
73624;BME280;61921;53.226;-1.296;2022-07-22T09:49:00;101133.53;;;16.97;76.92
73624;BME280;61921;53.226;-1.296;2022-07-22T09:51:26;101135.49;;;17.18;77.01
73624;BME280;61921;53.226;-1.296;2022-07-22T09:53:52;101135.74;;;17.46;75.73
73624;BME280;61921;53.226;-1.296;2022-07-22T09:56:18;101133.75;;;17.59;74.11
73624;BME280;61921;53.226;-1.296;2022-07-22T09:58:42;101134.78;;;17.43;74.77
73624;BME280;61921;53.226;-1.296;2022-07-22T10:01:17;101134.06;;;17.47;75.30
73624;BME280;61921;53.226;-1.296;2022-07-22T10:03:34;101133.10;;;17.24;74.29
73624;BME280;61921;53.226;-1.296;2022-07-22T10:05:58;101132.61;;;17.15;74.77
73624;BME280;61921;53.226;-1.296;2022-07-22T10:08:25;101131.19;;;17.27;74.44
73624;BME280;61921;53.226;-1.296;2022-07-22T10:10:49;101133.93;;;17.35;74.05
73624;BME280;61921;53.226;-1.296;2022-07-22T10:13:13;101131.19;;;17.41;73.34
73624;BME280;61921;53.226;-1.296;2022-07-22T10:15:38;101127.25;;;17.35;72.98
73624;BME280;61921;53.226;-1.296;2022-07-22T10:18:06;101123.08;;;17.49;73.36
73624;BME280;61921;53.226;-1.296;2022-07-22T10:20:30;101120.48;;;17.74;71.87
73624;BME280;61921;53.226;-1.296;2022-07-22T10:22:59;101119.08;;;17.79;72.48
73624;BME280;61921;53.226;-1.296;2022-07-22T10:25:21;101119.94;;;17.68;72.40
73624;BME280;61921;53.226;-1.296;2022-07-22T10:27:47;101120.43;;;17.78;72.76
73624;BME280;61921;53.226;-1.296;2022-07-22T10:30:13;101117.54;;;17.68;73.07
73624;BME280;61921;53.226;-1.296;2022-07-22T10:32:36;101123.21;;;17.47;73.52
73624;BME280;61921;53.226;-1.296;2022-07-22T10:35:20;101122.35;;;17.53;73.89
73624;BME280;61921;53.226;-1.296;2022-07-22T10:37:36;101123.23;;;17.63;73.35
73624;BME280;61921;53.226;-1.296;2022-07-22T10:42:17;101124.61;;;17.44;74.99
73624;BME280;61921;53.226;-1.296;2022-07-22T10:44:48;101117.95;;;17.60;74.59
73624;BME280;61921;53.226;-1.296;2022-07-22T10:47:07;101120.60;;;17.49;75.55
73624;BME280;61921;53.226;-1.296;2022-07-22T10:49:33;101118.68;;;17.50;75.87
73624;BME280;61921;53.226;-1.296;2022-07-22T10:52:09;101117.22;;;17.48;75.68
73624;BME280;61921;53.226;-1.296;2022-07-22T10:54:24;101113.10;;;17.47;75.40
73624;BME280;61921;53.226;-1.296;2022-07-22T10:56:49;101114.04;;;17.43;75.61
73624;BME280;61921;53.226;-1.296;2022-07-22T10:59:16;101111.74;;;17.47;76.60
73624;BME280;61921;53.226;-1.296;2022-07-22T11:01:42;101112.79;;;17.53;76.11
73624;BME280;61921;53.226;-1.296;2022-07-22T11:04:10;101114.53;;;17.56;75.83
73624;BME280;61921;53.226;-1.296;2022-07-22T11:06:31;101113.41;;;17.59;75.72
73624;BME280;61921;53.226;-1.296;2022-07-22T11:08:58;101111.77;;;17.42;75.25
73624;BME280;61921;53.226;-1.296;2022-07-22T11:11:32;101109.18;;;17.39;75.54
73624;BME280;61921;53.226;-1.296;2022-07-22T11:13:47;101108.47;;;17.52;74.73
73624;BME280;61921;53.226;-1.296;2022-07-22T11:16:15;101110.53;;;17.42;73.57
73624;BME280;61921;53.226;-1.296;2022-07-22T11:18:47;101108.31;;;17.40;74.55
73624;BME280;61921;53.226;-1.296;2022-07-22T11:21:04;101108.73;;;17.38;75.59
73624;BME280;61921;53.226;-1.296;2022-07-22T11:23:30;101104.06;;;17.40;75.78
73624;BME280;61921;53.226;-1.296;2022-07-22T11:25:56;101105.16;;;17.36;75.50
73624;BME280;61921;53.226;-1.296;2022-07-22T11:28:20;101097.62;;;17.46;74.93
73624;BME280;61921;53.226;-1.296;2022-07-22T11:30:45;101097.93;;;17.53;75.69
73624;BME280;61921;53.226;-1.296;2022-07-22T11:33:11;101093.22;;;17.59;75.27
73624;BME280;61921;53.226;-1.296;2022-07-22T11:35:36;101094.51;;;17.63;75.53
73624;BME280;61921;53.226;-1.296;2022-07-22T11:38:02;101093.78;;;17.57;75.81
73624;BME280;61921;53.226;-1.296;2022-07-22T11:40:32;101098.26;;;17.70;75.63
73624;BME280;61921;53.226;-1.296;2022-07-22T11:43:01;101096.49;;;17.30;73.36
73624;BME280;61921;53.226;-1.296;2022-07-22T11:45:18;101092.21;;;17.24;73.81
73624;BME280;61921;53.226;-1.296;2022-07-22T11:47:48;101089.74;;;17.23;75.50
73624;BME280;61921;53.226;-1.296;2022-07-22T11:50:09;101085.34;;;17.34;75.42
73624;BME280;61921;53.226;-1.296;2022-07-22T11:52:34;101082.16;;;17.35;74.50
73624;BME280;61921;53.226;-1.296;2022-07-22T11:54:59;101081.49;;;17.38;74.16
73624;BME280;61921;53.226;-1.296;2022-07-22T11:57:24;101080.87;;;17.59;74.37
73624;BME280;61921;53.226;-1.296;2022-07-22T11:59:49;101079.68;;;17.63;74.79
73624;BME280;61921;53.226;-1.296;2022-07-22T12:02:15;101081.08;;;17.74;74.39
73624;BME280;61921;53.226;-1.296;2022-07-22T12:04:41;101081.22;;;17.79;74.51
73624;BME280;61921;53.226;-1.296;2022-07-22T12:07:07;101084.11;;;17.75;74.09
73624;BME280;61921;53.226;-1.296;2022-07-22T12:09:34;101077.03;;;17.89;74.67
73624;BME280;61921;53.226;-1.296;2022-07-22T12:11:57;101081.53;;;18.00;73.47
73624;BME280;61921;53.226;-1.296;2022-07-22T12:14:23;101081.07;;;18.05;73.33
73624;BME280;61921;53.226;-1.296;2022-07-22T12:16:53;101076.14;;;17.79;73.22
73624;BME280;61921;53.226;-1.296;2022-07-22T12:19:13;101076.18;;;17.99;73.71
73624;BME280;61921;53.226;-1.296;2022-07-22T12:24:04;101078.88;;;18.19;73.75
73624;BME280;61921;53.226;-1.296;2022-07-22T12:26:38;101078.28;;;18.31;72.70
73624;BME280;61921;53.226;-1.296;2022-07-22T12:31:19;101073.77;;;18.25;72.39
73624;BME280;61921;53.226;-1.296;2022-07-22T12:33:48;101073.54;;;18.21;72.20
73624;BME280;61921;53.226;-1.296;2022-07-22T12:36:09;101071.22;;;18.34;72.74
73624;BME280;61921;53.226;-1.296;2022-07-22T12:38:35;101070.48;;;18.54;70.95